Time;durP1;ratioP1;P1;durP2;ratioP2;P2;SDS_P1;SDS_P2;PMS_P1;PMS_P2;Temp;Humidity;BMP_temperature;BMP_pressure;BME280_temperature;BME280_humidity;BME280_pressure;Samples;Min_cycle;Max_cycle;Signal;HPM_P1;HPM_P2
2022/09/22 00:00:28;;;;;;;2.23;1.87;;;8.60;99.90;;;;;;4955981;28;20219;-63
2022/09/22 00:02:56;;;;;;;1.60;1.50;;;8.50;99.90;;;;;;4945873;28;20235;-63
2022/09/22 00:05:23;;;;;;;2.27;1.70;;;8.60;99.90;;;;;;4965935;28;20204;-63
2022/09/22 00:07:50;;;;;;;2.53;1.70;;;8.60;99.90;;;;;;4962282;28;20209;-62
2022/09/22 00:10:20;;;;;;;6.33;2.00;;;8.60;99.90;;;;;;4959138;28;20294;-62
2022/09/22 00:12:46;;;;;;;9.30;2.00;;;8.60;99.90;;;;;;4937834;28;20575;-62
2022/09/22 00:15:13;;;;;;;3.03;1.90;;;8.60;99.90;;;;;;4959556;28;20203;-63
2022/09/22 00:17:40;;;;;;;4.13;1.97;;;8.70;99.90;;;;;;4945552;28;20633;-63
2022/09/22 00:20:08;;;;;;;2.53;2.20;;;8.40;99.90;;;;;;4965040;28;20216;-62
2022/09/22 00:22:34;;;;;;;3.23;1.90;;;8.60;99.90;;;;;;4961926;28;20227;-63
2022/09/22 00:25:01;;;;;;;2.13;1.63;;;8.60;99.90;;;;;;4959919;28;21294;-62
2022/09/22 00:27:29;;;;;;;1.73;1.63;;;8.60;99.90;;;;;;4957884;28;20708;-63
2022/09/22 00:29:56;;;;;;;2.30;1.97;;;8.60;99.90;;;;;;4938674;28;20229;-64
2022/09/22 00:32:23;;;;;;;4.70;1.70;;;8.30;99.90;;;;;;4967107;28;20614;-63
2022/09/22 00:34:50;;;;;;;5.23;1.87;;;8.50;99.90;;;;;;4939647;28;20661;-63
2022/09/22 00:37:16;;;;;;;2.17;1.50;;;8.50;99.90;;;;;;4944986;28;20342;-63
2022/09/22 00:39:43;;;;;;;2.00;1.53;;;8.40;99.90;;;;;;4964326;28;20200;-62
2022/09/22 00:42:12;;;;;;;2.93;1.80;;;8.50;99.90;;;;;;4948240;28;20208;-63
2022/09/22 00:44:42;;;;;;;4.20;2.10;;;8.40;99.90;;;;;;4947492;28;20208;-63
2022/09/22 00:47:19;;;;;;;2.00;1.70;;;8.40;99.90;;;;;;4966225;28;20214;-63
2022/09/22 00:49:51;;;;;;;2.63;1.70;;;8.20;99.90;;;;;;4946555;28;20301;-63
2022/09/22 00:52:22;;;;;;;1.77;1.60;;;7.30;99.90;;;;;;4940658;28;20204;-63
2022/09/22 00:54:52;;;;;;;2.23;1.30;;;8.10;99.90;;;;;;4967935;28;20205;-63
2022/09/22 00:57:22;;;;;;;5.33;1.77;;;8.10;99.90;;;;;;4971316;28;20199;-63
2022/09/22 00:59:52;;;;;;;1.60;1.50;;;8.10;99.90;;;;;;4952570;28;20404;-63
2022/09/22 01:02:19;;;;;;;4.43;1.57;;;8.30;99.90;;;;;;4966805;28;20208;-62
2022/09/22 01:04:48;;;;;;;1.63;1.30;;;8.20;99.90;;;;;;4933013;28;20554;-63
2022/09/22 01:07:15;;;;;;;2.03;1.83;;;8.20;99.90;;;;;;4954411;28;20676;-62
2022/09/22 01:09:42;;;;;;;1.40;1.30;;;8.20;99.90;;;;;;4950914;28;20203;-62
2022/09/22 01:12:09;;;;;;;2.80;1.17;;;8.10;99.90;;;;;;4962083;28;20216;-62
2022/09/22 01:14:49;;;;;;;2.67;1.57;;;7.90;99.90;;;;;;4974014;28;20204;-62
2022/09/22 01:17:29;;;;;;;1.43;1.33;;;7.80;99.90;;;;;;4938664;28;20207;-62
2022/09/22 01:20:39;;;;;;;3.40;1.70;;;7.90;99.90;;;;;;4950612;28;20679;-62
2022/09/22 01:23:37;;;;;;;9.33;1.97;;;8.00;99.90;;;;;;4962836;28;20238;-62
2022/09/22 01:26:34;;;;;;;1.43;1.33;;;8.00;99.90;;;;;;4945908;28;20211;-63
2022/09/22 01:29:40;;;;;;;4.40;1.73;;;8.10;99.90;;;;;;4971822;28;20226;-63
2022/09/22 01:32:15;;;;;;;1.70;1.60;;;8.00;99.90;;;;;;4942480;28;20238;-62
2022/09/22 01:34:47;;;;;;;1.90;1.43;;;8.10;99.90;;;;;;4967492;28;20225;-62
2022/09/22 01:37:21;;;;;;;2.27;1.40;;;8.10;99.90;;;;;;4939833;28;20219;-62
2022/09/22 01:39:54;;;;;;;3.07;1.80;;;8.00;99.90;;;;;;4944357;28;20207;-63
2022/09/22 01:42:26;;;;;;;1.83;1.67;;;8.00;99.90;;;;;;4962679;28;20238;-62
2022/09/22 01:44:57;;;;;;;2.93;2.10;;;8.00;99.90;;;;;;4961301;28;20226;-62
2022/09/22 01:47:29;;;;;;;2.27;1.90;;;8.00;99.90;;;;;;4952614;28;20792;-62
2022/09/22 01:49:59;;;;;;;6.67;2.10;;;8.00;99.90;;;;;;4971463;28;20213;-63
2022/09/22 01:52:30;;;;;;;3.23;1.70;;;8.00;99.90;;;;;;4946230;28;20215;-62
2022/09/22 01:55:00;;;;;;;4.23;2.37;;;7.70;99.90;;;;;;4969739;28;20204;-62
2022/09/22 01:57:34;;;;;;;3.90;2.30;;;8.00;99.90;;;;;;4957017;28;20203;-62
2022/09/22 02:00:05;;;;;;;5.00;1.97;;;8.10;99.90;;;;;;4960647;28;20192;-63
2022/09/22 02:02:39;;;;;;;2.33;2.00;;;8.00;99.90;;;;;;4948531;28;20211;-62
2022/09/22 02:05:12;;;;;;;2.40;2.03;;;8.00;99.90;;;;;;4943460;28;20905;-63
2022/09/22 02:07:42;;;;;;;3.33;1.80;;;7.90;99.90;;;;;;4949080;28;20212;-62
2022/09/22 02:10:13;;;;;;;3.80;2.40;;;7.20;99.90;;;;;;4958410;28;21052;-62
2022/09/22 02:12:40;;;;;;;5.07;1.97;;;7.80;99.90;;;;;;4963142;28;20200;-62
2022/09/22 02:15:58;;;;;;;2.17;1.90;;;7.60;99.90;;;;;;4964990;28;20207;-62
2022/09/22 02:18:05;;;;;;;4.60;2.00;;;8.10;99.90;;;;;;4953499;28;20230;-63
2022/09/22 02:20:33;;;;;;;2.87;1.87;;;7.50;99.30;;;;;;4971711;28;20195;-62
2022/09/22 02:23:00;;;;;;;2.97;1.77;;;7.50;99.90;;;;;;4946616;28;20764;-63
2022/09/22 02:25:27;;;;;;;2.23;1.63;;;7.50;99.90;;;;;;4976323;28;20204;-62
2022/09/22 02:27:56;;;;;;;3.10;1.70;;;7.60;99.90;;;;;;4963320;28;20204;-63
2022/09/22 02:30:24;;;;;;;3.80;1.87;;;7.30;99.90;;;;;;4959452;28;20203;-62
2022/09/22 02:32:55;;;;;;;2.70;1.63;;;7.60;99.90;;;;;;4955840;28;20214;-63
2022/09/22 02:35:25;;;;;;;1.60;1.50;;;7.50;99.90;;;;;;4948984;28;20710;-63
2022/09/22 02:38:00;;;;;;;2.10;1.63;;;7.50;99.90;;;;;;4959716;28;20669;-63
2022/09/22 02:40:30;;;;;;;1.47;1.37;;;7.70;99.90;;;;;;4963516;28;20295;-62
2022/09/22 02:43:03;;;;;;;3.53;1.50;;;7.70;99.90;;;;;;4962147;28;20228;-63
2022/09/22 02:45:35;;;;;;;2.70;1.50;;;7.70;99.90;;;;;;4977152;28;20220;-62
2022/09/22 02:48:06;;;;;;;2.77;1.40;;;10.00;99.90;;;;;;4956869;28;20207;-64
2022/09/22 02:50:35;;;;;;;3.80;1.60;;;7.50;99.90;;;;;;4965160;28;20669;-63
2022/09/22 02:53:04;;;;;;;2.13;1.20;;;7.50;99.90;;;;;;4948518;28;20216;-63
2022/09/22 02:55:31;;;;;;;1.73;1.40;;;7.50;99.90;;;;;;4967325;28;20206;-62
2022/09/22 02:57:59;;;;;;;2.10;1.50;;;;;;;;;;4965435;28;20203;-63
2022/09/22 03:00:25;;;;;;;1.50;1.40;;;7.50;99.90;;;;;;4959289;28;20223;-63
2022/09/22 03:02:52;;;;;;;3.10;1.37;;;7.70;99.90;;;;;;4955187;28;20220;-62
2022/09/22 03:05:19;;;;;;;1.43;1.33;;;7.50;99.90;;;;;;4940686;28;21115;-62
2022/09/22 03:07:47;;;;;;;4.23;1.43;;;7.80;99.90;;;;;;4954514;28;20223;-63
2022/09/22 03:10:14;;;;;;;2.53;1.30;;;7.60;99.90;;;;;;4943513;28;20254;-62
2022/09/22 03:12:42;;;;;;;1.80;1.43;;;6.20;99.90;;;;;;4965908;28;20434;-63
2022/09/22 03:15:10;;;;;;;1.60;1.50;;;7.80;99.90;;;;;;4952700;28;20227;-62
2022/09/22 03:17:37;;;;;;;4.70;1.70;;;7.60;99.90;;;;;;4965652;28;20205;-62
2022/09/22 03:20:05;;;;;;;1.43;1.33;;;7.40;99.90;;;;;;4948747;28;20219;-62
2022/09/22 03:22:32;;;;;;;1.33;1.23;;;7.40;99.90;;;;;;4961323;28;20204;-62
2022/09/22 03:25:01;;;;;;;2.90;1.40;;;7.50;99.90;;;;;;4945524;28;20228;-62
2022/09/22 03:27:27;;;;;;;1.43;1.20;;;7.50;99.90;;;;;;4962200;28;20207;-62
2022/09/22 03:29:54;;;;;;;1.43;1.30;;;7.50;99.10;;;;;;4965085;28;20203;-62
2022/09/22 03:32:21;;;;;;;2.23;1.43;;;6.90;99.90;;;;;;4965785;28;20277;-63
2022/09/22 03:34:49;;;;;;;2.03;1.43;;;7.30;98.20;;;;;;4956693;28;20245;-62
2022/09/22 03:37:16;;;;;;;2.73;1.73;;;7.40;99.90;;;;;;4962902;28;20245;-62
2022/09/22 03:39:43;;;;;;;1.43;1.30;;;6.10;99.90;;;;;;4952374;28;20211;-62
2022/09/22 03:42:11;;;;;;;3.90;1.37;;;7.30;98.70;;;;;;4975856;28;20192;-63
2022/09/22 03:44:38;;;;;;;1.83;1.63;;;8.80;99.90;;;;;;4966119;28;20227;-62
2022/09/22 03:47:05;;;;;;;2.60;1.67;;;7.20;99.90;;;;;;4957263;28;21016;-62
2022/09/22 03:49:33;;;;;;;3.23;1.70;;;7.20;99.90;;;;;;4959404;28;20228;-63
2022/09/22 03:52:00;;;;;;;3.37;1.60;;;5.20;99.90;;;;;;4941817;28;21271;-62
2022/09/22 03:54:27;;;;;;;2.20;1.37;;;5.60;99.90;;;;;;4942376;28;20219;-62
2022/09/22 03:56:54;;;;;;;1.60;1.40;;;7.20;99.90;;;;;;4951775;28;20235;-63
2022/09/22 03:59:22;;;;;;;2.40;1.60;;;7.00;99.90;;;;;;4972609;28;20930;-62
2022/09/22 04:01:49;;;;;;;1.80;1.30;;;7.00;99.90;;;;;;4955174;28;20540;-62
2022/09/22 04:04:16;;;;;;;3.37;1.67;;;6.70;99.90;;;;;;4947053;28;20605;-63
2022/09/22 04:06:42;;;;;;;4.87;1.53;;;7.00;99.90;;;;;;4916742;28;20231;-62
2022/09/22 04:09:09;;;;;;;1.60;1.50;;;6.90;99.90;;;;;;4919436;28;21247;-64
2022/09/22 04:11:36;;;;;;;2.53;1.70;;;8.30;99.90;;;;;;4958002;28;20695;-63
2022/09/22 04:14:03;;;;;;;4.37;1.30;;;;;;;;;;4977308;28;20230;-63
2022/09/22 04:16:32;;;;;;;2.10;1.27;;;7.20;99.90;;;;;;4944127;28;20219;-62
2022/09/22 04:18:59;;;;;;;2.53;1.23;;;7.40;99.90;;;;;;4952883;28;20676;-62
2022/09/22 04:21:27;;;;;;;1.20;1.10;;;8.10;99.90;;;;;;4951910;28;20492;-62
2022/09/22 04:23:53;;;;;;;2.17;1.30;;;7.20;99.90;;;;;;4948716;28;20738;-63
2022/09/22 04:26:20;;;;;;;1.20;1.10;;;7.10;99.90;;;;;;4938962;28;20996;-62
2022/09/22 04:28:47;;;;;;;1.30;1.20;;;7.00;99.90;;;;;;4952530;28;20234;-63
2022/09/22 04:31:14;;;;;;;2.60;1.30;;;5.60;99.90;;;;;;4944986;28;20361;-63
2022/09/22 04:33:42;;;;;;;3.77;1.40;;;6.90;99.90;;;;;;4947370;28;20727;-63
2022/09/22 04:36:09;;;;;;;7.90;1.47;;;7.50;99.90;;;;;;4935105;28;20278;-63
2022/09/22 04:38:36;;;;;;;4.00;1.47;;;6.90;99.90;;;;;;4950815;28;20235;-63
2022/09/22 04:41:03;;;;;;;3.13;1.67;;;;;;;;;;4924493;28;20223;-63
2022/09/22 04:43:30;;;;;;;1.97;1.60;;;7.10;99.90;;;;;;4958463;28;20234;-64
2022/09/22 04:45:56;;;;;;;1.73;1.20;;;6.70;99.90;;;;;;4962652;28;20223;-64
2022/09/22 04:48:23;;;;;;;4.83;1.80;;;7.00;99.90;;;;;;4936469;28;20513;-63
2022/09/22 04:50:51;;;;;;;2.67;1.80;;;10.40;99.90;;;;;;4925912;28;20598;-63
2022/09/22 04:53:19;;;;;;;1.93;1.20;;;;;;;;;;4947310;28;20207;-67
2022/09/22 04:55:45;;;;;;;2.77;1.87;;;6.80;99.90;;;;;;4938326;28;20210;-63
2022/09/22 04:58:12;;;;;;;2.27;1.70;;;6.90;99.90;;;;;;4951930;28;20319;-62
2022/09/22 05:00:39;;;;;;;2.00;1.80;;;7.00;99.90;;;;;;4960754;28;20230;-63
2022/09/22 05:03:08;;;;;;;2.53;1.67;;;7.00;99.90;;;;;;4944520;28;20222;-63
2022/09/22 05:05:34;;;;;;;4.10;2.10;;;6.00;99.90;;;;;;4954302;28;20254;-63
2022/09/22 05:08:04;;;;;;;6.93;2.10;;;6.90;99.90;;;;;;4950270;28;20215;-63
2022/09/22 05:10:35;;;;;;;12.73;2.67;;;;;;;;;;4920930;28;20497;-63
2022/09/22 05:13:02;;;;;;;26.97;3.80;;;7.00;99.90;;;;;;4929784;28;20207;-63
2022/09/22 05:15:31;;;;;;;12.50;3.00;;;6.90;99.90;;;;;;4969728;28;20235;-62
2022/09/22 05:17:58;;;;;;;11.10;2.77;;;6.90;99.90;;;;;;4938789;28;20237;-63
2022/09/22 05:20:25;;;;;;;11.40;3.63;;;7.10;99.90;;;;;;4941241;28;20830;-63
2022/09/22 05:22:53;;;;;;;13.60;3.13;;;7.00;99.90;;;;;;4945300;28;20227;-62
2022/09/22 05:25:22;;;;;;;11.30;3.73;;;6.90;99.90;;;;;;4942591;28;20266;-63
2022/09/22 05:27:50;;;;;;;6.57;3.20;;;7.70;99.90;;;;;;4961769;28;21020;-63
2022/09/22 05:30:18;;;;;;;8.33;3.20;;;7.50;99.90;;;;;;4968072;28;20229;-63
2022/09/22 05:32:46;;;;;;;12.83;3.63;;;8.90;99.90;;;;;;4958424;28;20233;-63
2022/09/22 05:35:13;;;;;;;10.73;3.70;;;7.40;99.90;;;;;;4955046;28;20225;-63
2022/09/22 05:37:43;;;;;;;6.27;3.57;;;7.30;99.90;;;;;;4953247;28;20313;-63
2022/09/22 05:40:11;;;;;;;11.53;4.37;;;7.40;99.90;;;;;;4940905;28;21035;-63
2022/09/22 05:42:43;;;;;;;8.10;4.30;;;7.40;99.90;;;;;;4970561;28;20196;-63
2022/09/22 05:45:10;;;;;;;5.43;3.70;;;7.70;99.90;;;;;;4960628;28;20738;-64
2022/09/22 05:47:38;;;;;;;5.20;3.50;;;7.40;99.90;;;;;;4956128;28;20228;-62
2022/09/22 05:50:07;;;;;;;4.83;3.27;;;7.50;99.90;;;;;;4950756;28;20445;-63
2022/09/22 05:52:33;;;;;;;4.87;3.40;;;8.10;99.90;;;;;;4963105;28;20322;-62
2022/09/22 05:55:00;;;;;;;7.17;3.80;;;7.50;99.90;;;;;;4948257;28;20705;-63
2022/09/22 05:57:27;;;;;;;6.97;3.60;;;7.50;99.90;;;;;;4943461;28;20421;-64
2022/09/22 05:59:55;;;;;;;4.50;3.50;;;7.20;99.90;;;;;;4967891;28;20200;-63
2022/09/22 06:02:23;;;;;;;7.23;2.90;;;7.60;99.90;;;;;;4970641;28;20357;-62
2022/09/22 06:04:50;;;;;;;8.20;3.20;;;8.00;99.90;;;;;;4950567;28;21093;-63
2022/09/22 06:07:19;;;;;;;5.93;2.73;;;7.60;99.90;;;;;;4963022;28;20207;-63
2022/09/22 06:09:45;;;;;;;9.00;2.70;;;6.90;99.90;;;;;;4940067;28;20583;-61
2022/09/22 06:12:13;;;;;;;6.07;2.63;;;7.60;99.90;;;;;;4948638;28;20207;-61
2022/09/22 06:14:39;;;;;;;5.30;3.00;;;7.70;99.90;;;;;;4972478;28;20277;-62
2022/09/22 06:17:10;;;;;;;4.50;2.90;;;7.80;99.90;;;;;;4966884;28;20730;-61
2022/09/22 06:19:37;;;;;;;4.27;2.70;;;7.80;99.90;;;;;;4955650;28;20207;-61
2022/09/22 06:22:04;;;;;;;3.37;2.57;;;8.10;99.90;;;;;;4956270;28;20203;-61
2022/09/22 06:24:31;;;;;;;10.60;3.40;;;4.40;99.90;;;;;;4956973;28;20231;-61
2022/09/22 06:26:58;;;;;;;12.53;3.23;;;8.00;99.90;;;;;;4930539;28;20203;-63
2022/09/22 06:29:25;;;;;;;7.27;3.07;;;8.00;99.90;;;;;;4954423;28;20588;-63
2022/09/22 06:31:52;;;;;;;7.07;3.83;;;;;;;;;;4966883;28;20597;-63
2022/09/22 06:34:22;;;;;;;7.83;3.47;;;5.50;99.90;;;;;;4950366;28;20207;-63
2022/09/22 06:36:49;;;;;;;6.17;3.47;;;8.20;99.90;;;;;;4944244;28;20913;-63
2022/09/22 06:39:16;;;;;;;13.77;5.00;;;8.60;99.90;;;;;;4963836;28;20202;-63
2022/09/22 06:41:44;;;;;;;13.87;5.17;;;8.20;99.90;;;;;;4951332;28;20208;-63
2022/09/22 06:44:11;;;;;;;15.97;5.43;;;8.50;99.90;;;;;;4948936;28;20285;-63
2022/09/22 06:46:38;;;;;;;9.13;5.83;;;12.20;99.90;;;;;;4961064;28;20303;-63
2022/09/22 06:49:05;;;;;;;9.77;6.20;;;8.50;99.90;;;;;;4957819;28;20968;-63
2022/09/22 06:51:35;;;;;;;12.07;5.40;;;8.90;99.90;;;;;;4957800;28;20222;-63
2022/09/22 06:54:04;;;;;;;10.30;5.27;;;8.90;99.90;;;;;;4949294;28;20211;-63
2022/09/22 06:56:34;;;;;;;8.37;5.53;;;8.70;99.90;;;;;;4936303;28;20700;-63
2022/09/22 06:59:01;;;;;;;10.10;5.67;;;9.60;99.90;;;;;;4940681;28;20214;-63
2022/09/22 07:01:30;;;;;;;10.60;5.03;;;8.90;99.90;;;;;;4965234;28;20199;-63
2022/09/22 07:03:57;;;;;;;9.23;4.90;;;9.10;99.90;;;;;;4964919;28;20227;-63
2022/09/22 07:06:25;;;;;;;8.63;5.07;;;9.00;99.90;;;;;;4953733;28;20982;-63
2022/09/22 07:08:53;;;;;;;8.40;4.80;;;9.30;99.90;;;;;;4954279;28;20540;-64
2022/09/22 07:11:22;;;;;;;11.50;5.00;;;9.10;99.90;;;;;;4947572;28;20219;-64
2022/09/22 07:13:51;;;;;;;7.27;4.70;;;9.30;99.90;;;;;;4919833;28;20215;-64
2022/09/22 07:16:20;;;;;;;9.03;4.57;;;9.30;99.90;;;;;;4959147;28;20228;-63
2022/09/22 07:18:48;;;;;;;5.70;4.20;;;9.40;99.90;;;;;;4960147;28;20671;-64
2022/09/22 07:21:19;;;;;;;9.37;3.97;;;9.30;99.90;;;;;;4946051;28;20494;-64
2022/09/22 07:23:48;;;;;;;10.13;4.57;;;9.40;99.90;;;;;;4956851;28;20251;-64
2022/09/22 07:26:19;;;;;;;7.85;4.45;;;9.50;99.90;;;;;;4954636;28;20357;-64
2022/09/22 07:28:49;;;;;;;13.83;4.53;;;9.60;99.90;;;;;;4941879;28;21371;-64
2022/09/22 07:31:16;;;;;;;8.10;4.20;;;10.00;99.90;;;;;;4915026;28;20209;-63
2022/09/22 07:33:45;;;;;;;4.83;4.13;;;9.60;99.90;;;;;;4962944;28;20645;-63
2022/09/22 07:36:14;;;;;;;8.43;4.40;;;9.70;99.90;;;;;;4954438;28;20488;-64
2022/09/22 07:38:43;;;;;;;11.60;3.67;;;11.10;99.90;;;;;;4955362;28;20203;-63
2022/09/22 07:41:11;;;;;;;5.10;4.17;;;10.20;99.90;;;;;;4948220;28;21064;-64
2022/09/22 07:43:41;;;;;;;9.30;4.53;;;9.90;99.90;;;;;;4936596;28;20978;-63
2022/09/22 07:46:08;;;;;;;7.50;4.13;;;10.20;99.90;;;;;;4939655;28;20617;-63
2022/09/22 07:48:40;;;;;;;11.48;5.15;;;10.00;99.90;;;;;;4965583;28;20214;-64
2022/09/22 07:51:09;;;;;;;10.38;5.10;;;10.10;99.90;;;;;;4965562;28;20230;-64
2022/09/22 07:53:36;;;;;;;7.60;4.82;;;11.70;99.90;;;;;;4957601;28;20222;-64
2022/09/22 07:56:05;;;;;;;9.98;4.80;;;10.30;99.90;;;;;;4950236;28;20199;-63
2022/09/22 07:58:32;;;;;;;9.05;5.25;;;10.40;99.90;;;;;;4938069;28;20268;-64
2022/09/22 08:01:05;;;;;;;9.65;5.00;;;10.50;99.90;;;;;;4911940;28;20227;-64
2022/09/22 08:03:32;;;;;;;11.50;5.50;;;10.50;99.90;;;;;;4954243;28;20247;-63
2022/09/22 08:06:04;;;;;;;10.18;5.05;;;10.50;99.90;;;;;;4972245;28;20617;-64
2022/09/22 08:08:33;;;;;;;11.25;5.00;;;10.60;99.90;;;;;;4946179;28;20417;-63
2022/09/22 08:11:04;;;;;;;9.23;5.07;;;10.80;99.90;;;;;;4949864;28;20213;-63
2022/09/22 08:13:32;;;;;;;9.13;5.82;;;10.80;99.90;;;;;;4947063;28;20953;-62
2022/09/22 08:16:02;;;;;;;8.35;4.22;;;10.70;99.90;;;;;;4938549;28;20293;-61
2022/09/22 08:18:29;;;;;;;13.30;4.80;;;10.80;99.90;;;;;;4944581;28;20537;-62
2022/09/22 08:20:56;;;;;;;8.35;4.93;;;10.80;99.90;;;;;;4960091;28;20200;-61
2022/09/22 08:23:23;;;;;;;8.80;4.68;;;11.00;99.90;;;;;;4950110;28;20258;-61
2022/09/22 08:25:50;;;;;;;15.07;4.40;;;11.50;99.90;;;;;;4946162;28;20259;-62
2022/09/22 08:28:17;;;;;;;10.77;4.15;;;11.30;99.90;;;;;;4951811;28;20226;-62
2022/09/22 08:30:45;;;;;;;11.00;3.85;;;11.20;99.90;;;;;;4943316;28;20238;-65
2022/09/22 08:33:15;;;;;;;6.63;3.50;;;12.20;99.90;;;;;;4934904;28;20229;-62
2022/09/22 08:35:51;;;;;;;6.57;3.35;;;11.30;99.90;;;;;;4961311;28;20341;-63
2022/09/22 08:38:18;;;;;;;6.85;2.53;;;11.40;99.90;;;;;;4954739;28;20219;-62
2022/09/22 08:40:57;;;;;;;4.70;2.85;;;11.60;99.90;;;;;;4955806;28;20207;-63
2022/09/22 08:43:24;;;;;;;4.50;3.00;;;11.40;99.90;;;;;;4969582;28;20991;-64
2022/09/22 08:45:52;;;;;;;13.65;2.72;;;11.40;99.90;;;;;;4938105;28;21049;-63
2022/09/22 08:53:58;;;;;;;5.53;2.45;;;11.70;99.90;;;;;;4957778;28;20656;-62
2022/09/22 08:56:29;;;;;;;4.63;1.70;;;11.70;99.90;;;;;;4955671;28;20216;-62
2022/09/22 08:59:03;;;;;;;6.13;1.90;;;11.80;99.90;;;;;;4955136;28;20210;-62
2022/09/22 09:01:48;;;;;;;7.07;1.50;;;11.70;99.90;;;;;;4941650;28;20211;-62
2022/09/22 09:05:03;;;;;;;12.68;2.10;;;11.80;99.90;;;;;;4964296;28;20584;-62
2022/09/22 09:07:44;;;;;;;8.38;1.85;;;12.10;99.90;;;;;;4918387;28;20203;-62
2022/09/22 09:10:27;;;;;;;7.40;1.67;;;11.80;99.10;;;;;;4957268;28;20203;-62
2022/09/22 09:13:12;;;;;;;10.10;1.80;;;11.90;97.30;;;;;;4955400;28;20311;-62
2022/09/22 09:15:51;;;;;;;5.82;1.50;;;11.90;96.80;;;;;;4952631;28;20208;-63
2022/09/22 09:18:25;;;;;;;2.53;1.50;;;12.10;96.70;;;;;;4935628;28;20709;-62
2022/09/22 09:20:54;;;;;;;2.75;1.27;;;12.00;93.10;;;;;;4955314;28;20214;-63
2022/09/22 09:23:28;;;;;;;8.00;1.33;;;12.10;92.60;;;;;;4950061;28;20752;-62
2022/09/22 09:25:56;;;;;;;8.27;2.00;;;12.20;94.10;;;;;;4961711;28;20232;-62
2022/09/22 09:28:31;;;;;;;7.40;1.20;;;12.10;91.80;;;;;;4952770;28;20723;-62
2022/09/22 09:31:06;;;;;;;8.75;1.50;;;12.90;91.40;;;;;;4957514;28;20202;-64
2022/09/22 09:33:43;;;;;;;2.65;1.02;;;13.30;87.50;;;;;;4931693;28;20223;-63
2022/09/22 09:36:16;;;;;;;2.95;1.10;;;12.30;84.80;;;;;;4962901;28;20675;-63
2022/09/22 09:38:49;;;;;;;8.68;1.50;;;12.40;84.20;;;;;;4959303;28;21074;-63
2022/09/22 09:41:19;;;;;;;8.77;1.40;;;12.60;84.70;;;;;;4966670;28;20285;-63
2022/09/22 09:43:46;;;;;;;4.78;1.40;;;11.80;77.10;;;;;;4945241;28;20225;-63
2022/09/22 09:46:28;;;;;;;4.90;1.33;;;12.60;68.90;;;;;;4966078;28;20227;-63
2022/09/22 09:49:04;;;;;;;2.85;0.88;;;12.70;68.90;;;;;;4928811;28;20306;-63
2022/09/22 09:51:34;;;;;;;2.50;1.38;;;;;;;;;;4969915;28;20224;-62
2022/09/22 09:54:05;;;;;;;8.82;1.45;;;12.60;65.60;;;;;;4962225;28;20280;-62
2022/09/22 09:56:35;;;;;;;1.15;1.05;;;12.90;61.20;;;;;;4940818;28;21037;-63
2022/09/22 10:01:51;;;;;;;3.85;1.30;;;12.90;49.70;;;;;;4963117;28;20286;-63
2022/09/22 10:04:26;;;;;;;2.78;1.00;;;13.00;47.70;;;;;;4928331;28;20246;-63
2022/09/22 10:06:56;;;;;;;12.00;1.70;;;13.00;49.40;;;;;;4967575;28;20234;-63
2022/09/22 10:09:25;;;;;;;5.80;1.52;;;13.00;53.70;;;;;;4970822;28;20200;-63
2022/09/22 10:11:59;;;;;;;8.60;1.95;;;13.10;54.90;;;;;;4964944;28;20239;-62
2022/09/22 10:14:29;;;;;;;11.20;4.80;;;13.20;53.50;;;;;;4953171;28;20744;-63
2022/09/22 10:16:56;;;;;;;4.70;2.45;;;13.50;54.20;;;;;;4953322;28;20200;-63
2022/09/22 10:19:27;;;;;;;3.50;1.60;;;13.30;49.40;;;;;;4935209;28;20214;-63
2022/09/22 10:22:16;;;;;;;4.72;1.50;;;13.20;48.30;;;;;;4967031;28;20215;-63
2022/09/22 10:24:53;;;;;;;2.83;1.45;;;14.80;43.60;;;;;;4966631;28;20215;-63
2022/09/22 10:27:22;;;;;;;3.05;1.30;;;13.70;34.50;;;;;;4963948;28;20230;-63
2022/09/22 10:30:22;;;;;;;4.45;1.50;;;13.50;26.60;;;;;;4948762;28;20215;-63
2022/09/22 10:33:06;;;;;;;6.80;1.63;;;13.50;25.40;;;;;;4947839;28;20254;-62
2022/09/22 10:35:35;;;;;;;3.75;1.50;;;13.40;23.50;;;;;;4937197;28;20238;-64
2022/09/22 10:38:08;;;;;;;3.33;1.50;;;13.60;10.30;;;;;;4955630;28;20227;-64
2022/09/22 10:40:38;;;;;;;4.63;1.55;;;13.70;15.20;;;;;;4960422;28;20230;-64
2022/09/22 10:43:20;;;;;;;5.68;2.22;;;13.90;22.90;;;;;;4959314;28;20219;-64
2022/09/22 10:45:57;;;;;;;5.75;1.58;;;13.60;23.20;;;;;;4952535;28;20223;-63
2022/09/22 10:48:31;;;;;;;3.97;1.25;;;13.90;21.60;;;;;;4944696;28;20223;-63
2022/09/22 10:51:08;;;;;;;13.95;2.10;;;13.70;24.10;;;;;;4939893;28;20207;-63
2022/09/22 10:53:53;;;;;;;3.70;1.20;;;14.00;13.30;;;;;;4966222;28;20195;-63
2022/09/22 10:56:29;;;;;;;4.63;1.27;;;14.00;5.80;;;;;;4958711;28;20224;-63
2022/09/22 10:59:17;;;;;;;2.85;1.27;;;14.00;1.20;;;;;;4970952;28;20203;-64
2022/09/22 11:01:57;;;;;;;4.78;1.10;;;13.80;1.00;;;;;;4949838;28;20214;-63
2022/09/22 11:04:41;;;;;;;6.35;1.40;;;14.00;1.00;;;;;;4956998;28;20223;-63
2022/09/22 11:13:26;;;;;;;6.15;1.55;;;14.30;99.90;;;;;;4968024;28;20234;-63
2022/09/22 11:16:15;;;;;;;5.07;1.90;;;14.30;1.00;;;;;;4960295;28;20203;-65
2022/09/22 11:18:56;;;;;;;8.55;1.67;;;14.30;99.90;;;;;;4957501;28;20228;-63
2022/09/22 11:21:38;;;;;;;6.68;2.00;;;14.30;1.00;;;;;;4935937;28;20227;-63
2022/09/22 11:24:22;;;;;;;1.80;1.17;;;14.40;1.00;;;;;;4970318;28;20220;-63
2022/09/22 11:26:53;;;;;;;4.05;1.15;;;14.40;99.90;;;;;;4973307;28;20242;-63
2022/09/22 11:30:07;;;;;;;3.55;1.30;;;14.40;99.90;;;;;;4938603;28;20230;-63
2022/09/22 11:33:09;;;;;;;5.43;1.25;;;14.30;99.90;;;;;;4938865;28;21020;-63
2022/09/22 11:35:58;;;;;;;13.25;1.73;;;14.30;99.90;;;;;;4926244;28;20261;-63
2022/09/22 11:38:40;;;;;;;4.63;1.67;;;14.30;99.90;;;;;;4929551;28;20227;-64
2022/09/22 11:41:25;;;;;;;8.73;2.10;;;14.10;65.80;;;;;;4959471;28;20255;-63
2022/09/22 11:44:12;;;;;;;2.75;1.50;;;14.40;99.90;;;;;;4930828;28;20249;-63
2022/09/22 11:46:54;;;;;;;1.88;1.42;;;14.40;99.90;;;;;;4958345;28;20223;-63
2022/09/22 11:49:32;;;;;;;5.45;1.67;;;14.50;99.90;;;;;;4949335;28;20223;-63
2022/09/22 11:52:20;;;;;;;5.90;1.98;;;14.40;99.90;;;;;;4942846;28;20211;-64
2022/09/22 11:55:07;;;;;;;2.30;1.55;;;14.70;1.00;;;;;;4939260;28;20222;-65
2022/09/22 11:57:39;;;;;;;4.68;1.60;;;15.40;80.60;;;;;;4965295;28;20204;-63
2022/09/22 12:00:15;;;;;;;1.42;1.10;;;15.00;80.30;;;;;;4957406;28;20582;-64
2022/09/22 12:02:47;;;;;;;2.58;1.10;;;12.20;1.00;;;;;;4957385;28;20237;-64
2022/09/22 12:05:20;;;;;;;2.15;1.10;;;14.90;99.90;;;;;;4944949;28;20377;-64
2022/09/22 12:07:54;;;;;;;1.98;1.00;;;14.50;1.00;;;;;;4934917;28;20266;-64
2022/09/22 12:10:27;;;;;;;8.60;1.63;;;14.80;99.90;;;;;;4937137;28;20211;-64
2022/09/22 12:12:55;;;;;;;6.28;1.90;;;14.70;1.00;;;;;;4953820;28;20224;-64
2022/09/22 12:15:28;;;;;;;5.25;1.42;;;14.60;1.00;;;;;;4951246;28;20906;-64
2022/09/22 12:18:04;;;;;;;5.53;2.05;;;14.80;1.00;;;;;;4954587;28;20228;-64
2022/09/22 12:20:39;;;;;;;4.63;1.58;;;15.00;11.30;;;;;;4953924;28;20223;-63
2022/09/22 12:23:38;;;;;;;3.47;1.65;;;14.80;54.60;;;;;;4947679;28;20227;-63
2022/09/22 12:26:07;;;;;;;3.58;1.58;;;15.00;1.00;;;;;;4946419;28;20282;-64
2022/09/22 12:28:39;;;;;;;3.90;1.42;;;14.90;1.00;;;;;;4961365;28;20302;-64
2022/09/22 12:31:11;;;;;;;7.78;1.90;;;15.00;1.00;;;;;;4952248;28;20314;-63
2022/09/22 12:33:44;;;;;;;5.03;1.50;;;15.00;1.00;;;;;;4961408;28;20230;-63
2022/09/22 12:36:11;;;;;;;4.65;1.38;;;14.80;1.00;;;;;;4945157;28;20822;-64
2022/09/22 12:38:38;;;;;;;3.17;1.42;;;15.00;1.00;;;;;;4939872;28;20274;-64
2022/09/22 12:41:06;;;;;;;6.38;1.58;;;15.30;1.00;;;;;;4950467;28;20223;-63
2022/09/22 12:43:35;;;;;;;6.68;1.55;;;15.20;1.00;;;;;;4963692;28;20226;-63
2022/09/22 12:46:11;;;;;;;5.65;1.80;;;14.80;1.00;;;;;;4960279;23;20232;-63
2022/09/22 12:48:39;;;;;;;4.82;1.98;;;14.60;1.00;;;;;;4976494;28;20237;-63
2022/09/22 12:54:45;;;;;;;2.00;1.30;;;14.80;1.00;;;;;;4952671;23;20237;-64
2022/09/22 12:57:29;;;;;;;6.10;1.60;;;15.00;1.00;;;;;;4978264;28;20280;-64
2022/09/22 13:00:28;;;;;;;7.63;1.58;;;14.80;1.00;;;;;;4963801;28;20239;-63
2022/09/22 13:02:56;;;;;;;5.28;1.13;;;14.80;1.00;;;;;;4951822;28;20223;-64
2022/09/22 13:05:36;;;;;;;9.73;1.60;;;14.90;99.90;;;;;;4979553;28;20711;-63
2022/09/22 13:08:04;;;;;;;3.13;1.45;;;;;;;;;;4957873;28;22055;-63
2022/09/22 13:11:00;;;;;;;2.25;1.20;;;14.70;99.90;;;;;;4934304;28;20307;-62
2022/09/22 13:13:45;;;;;;;4.30;1.35;;;15.00;99.90;;;;;;4960669;28;20227;-63
2022/09/22 13:16:34;;;;;;;1.83;1.10;;;14.90;99.90;;;;;;4981099;28;20219;-63
2022/09/22 13:19:01;;;;;;;2.67;1.05;;;15.00;99.90;;;;;;4970123;28;20205;-63
2022/09/22 13:21:31;;;;;;;2.78;0.82;;;15.00;99.90;;;;;;4975649;28;21267;-63
2022/09/22 13:24:00;;;;;;;3.10;1.02;;;13.50;99.90;;;;;;4976935;28;20227;-63
2022/09/22 13:26:29;;;;;;;2.88;1.02;;;15.20;99.90;;;;;;4943268;28;20786;-64
2022/09/22 13:29:01;;;;;;;5.78;1.45;;;15.40;1.00;;;;;;4976088;28;20219;-63
2022/09/22 13:31:34;;;;;;;1.60;1.35;;;15.50;1.00;;;;;;4953737;28;20225;-64
2022/09/22 13:34:17;;;;;;;5.22;1.20;;;15.70;99.90;;;;;;4959433;28;20229;-63
2022/09/22 13:36:46;;;;;;;8.07;2.10;;;15.80;44.40;;;;;;4961443;28;20238;-63